sensor_id;sensor_type;location;lat;lon;timestamp;P1;durP1;ratioP1;P2;durP2;ratioP2
15110;SDS011;7656;51.954;7.998;2022-09-09T00:04:40;3.27;;;1.00;;
15110;SDS011;7656;51.954;7.998;2022-09-09T00:08:53;1.63;;;1.00;;
15110;SDS011;7656;51.954;7.998;2022-09-09T00:13:48;2.73;;;1.03;;
15110;SDS011;7656;51.954;7.998;2022-09-09T00:18:23;6.37;;;1.10;;
15110;SDS011;7656;51.954;7.998;2022-09-09T00:27:45;2.43;;;1.47;;
15110;SDS011;7656;51.954;7.998;2022-09-09T00:32:16;2.50;;;1.00;;
15110;SDS011;7656;51.954;7.998;2022-09-09T00:36:39;3.30;;;1.43;;
15110;SDS011;7656;51.954;7.998;2022-09-09T00:41:14;1.80;;;1.30;;
15110;SDS011;7656;51.954;7.998;2022-09-09T00:50:38;3.33;;;1.40;;
15110;SDS011;7656;51.954;7.998;2022-09-09T00:55:17;2.90;;;1.20;;
15110;SDS011;7656;51.954;7.998;2022-09-09T01:04:50;1.50;;;1.20;;
15110;SDS011;7656;51.954;7.998;2022-09-09T01:09:32;3.90;;;1.63;;
15110;SDS011;7656;51.954;7.998;2022-09-09T01:19:10;2.10;;;1.33;;
15110;SDS011;7656;51.954;7.998;2022-09-09T01:29:02;4.03;;;1.47;;
15110;SDS011;7656;51.954;7.998;2022-09-09T01:33:32;3.40;;;1.37;;
15110;SDS011;7656;51.954;7.998;2022-09-09T01:37:53;1.67;;;1.10;;
15110;SDS011;7656;51.954;7.998;2022-09-09T01:42:15;1.33;;;1.23;;
15110;SDS011;7656;51.954;7.998;2022-09-09T01:46:39;2.67;;;1.30;;
15110;SDS011;7656;51.954;7.998;2022-09-09T01:51:07;2.97;;;1.37;;
15110;SDS011;7656;51.954;7.998;2022-09-09T01:55:32;2.77;;;1.37;;
15110;SDS011;7656;51.954;7.998;2022-09-09T02:00:09;1.73;;;1.30;;
15110;SDS011;7656;51.954;7.998;2022-09-09T02:04:37;1.90;;;1.50;;
15110;SDS011;7656;51.954;7.998;2022-09-09T02:09:07;1.80;;;1.40;;
15110;SDS011;7656;51.954;7.998;2022-09-09T02:13:34;1.80;;;1.20;;
15110;SDS011;7656;51.954;7.998;2022-09-09T02:18:03;1.47;;;1.37;;
15110;SDS011;7656;51.954;7.998;2022-09-09T02:22:28;1.30;;;1.20;;
15110;SDS011;7656;51.954;7.998;2022-09-09T02:26:53;2.77;;;1.40;;
15110;SDS011;7656;51.954;7.998;2022-09-09T02:31:18;1.00;;;1.00;;
15110;SDS011;7656;51.954;7.998;2022-09-09T02:35:44;2.63;;;1.20;;
15110;SDS011;7656;51.954;7.998;2022-09-09T02:40:11;1.87;;;1.73;;
15110;SDS011;7656;51.954;7.998;2022-09-09T02:44:40;2.30;;;1.50;;
15110;SDS011;7656;51.954;7.998;2022-09-09T02:49:11;2.70;;;1.30;;
15110;SDS011;7656;51.954;7.998;2022-09-09T02:53:52;4.57;;;1.50;;
15110;SDS011;7656;51.954;7.998;2022-09-09T02:58:29;1.80;;;1.40;;
15110;SDS011;7656;51.954;7.998;2022-09-09T03:02:55;1.50;;;1.40;;
15110;SDS011;7656;51.954;7.998;2022-09-09T03:07:17;1.40;;;1.23;;
15110;SDS011;7656;51.954;7.998;2022-09-09T03:11:40;1.63;;;1.40;;
15110;SDS011;7656;51.954;7.998;2022-09-09T03:16:02;1.80;;;1.40;;
15110;SDS011;7656;51.954;7.998;2022-09-09T03:20:28;2.17;;;1.40;;
15110;SDS011;7656;51.954;7.998;2022-09-09T03:24:51;2.10;;;1.60;;
15110;SDS011;7656;51.954;7.998;2022-09-09T03:29:13;1.03;;;1.03;;
15110;SDS011;7656;51.954;7.998;2022-09-09T03:33:36;2.93;;;1.50;;
15110;SDS011;7656;51.954;7.998;2022-09-09T03:37:59;1.50;;;1.40;;
15110;SDS011;7656;51.954;7.998;2022-09-09T03:42:22;1.67;;;1.47;;
15110;SDS011;7656;51.954;7.998;2022-09-09T03:46:47;2.07;;;1.57;;
15110;SDS011;7656;51.954;7.998;2022-09-09T03:51:08;2.27;;;1.50;;
15110;SDS011;7656;51.954;7.998;2022-09-09T03:55:31;1.80;;;1.70;;
15110;SDS011;7656;51.954;7.998;2022-09-09T03:59:53;2.03;;;1.63;;
15110;SDS011;7656;51.954;7.998;2022-09-09T04:04:15;2.47;;;1.57;;
15110;SDS011;7656;51.954;7.998;2022-09-09T04:08:37;1.53;;;1.40;;
15110;SDS011;7656;51.954;7.998;2022-09-09T04:12:59;1.60;;;1.50;;
15110;SDS011;7656;51.954;7.998;2022-09-09T04:17:21;1.70;;;1.60;;
15110;SDS011;7656;51.954;7.998;2022-09-09T04:21:42;2.10;;;1.60;;
15110;SDS011;7656;51.954;7.998;2022-09-09T04:26:04;1.63;;;1.50;;
15110;SDS011;7656;51.954;7.998;2022-09-09T04:30:27;1.93;;;1.13;;
15110;SDS011;7656;51.954;7.998;2022-09-09T04:34:48;3.30;;;1.83;;
15110;SDS011;7656;51.954;7.998;2022-09-09T04:39:10;3.60;;;1.87;;
15110;SDS011;7656;51.954;7.998;2022-09-09T04:43:31;1.87;;;1.50;;
15110;SDS011;7656;51.954;7.998;2022-09-09T04:47:54;2.43;;;1.50;;
15110;SDS011;7656;51.954;7.998;2022-09-09T04:52:16;2.70;;;1.53;;
15110;SDS011;7656;51.954;7.998;2022-09-09T04:56:38;1.83;;;1.73;;
15110;SDS011;7656;51.954;7.998;2022-09-09T05:01:06;1.57;;;1.47;;
15110;SDS011;7656;51.954;7.998;2022-09-09T05:05:35;1.80;;;1.50;;
15110;SDS011;7656;51.954;7.998;2022-09-09T05:09:57;1.30;;;1.20;;
15110;SDS011;7656;51.954;7.998;2022-09-09T05:14:19;1.30;;;1.20;;
15110;SDS011;7656;51.954;7.998;2022-09-09T05:18:40;2.73;;;1.37;;
15110;SDS011;7656;51.954;7.998;2022-09-09T05:23:03;4.40;;;1.30;;
15110;SDS011;7656;51.954;7.998;2022-09-09T05:27:27;2.77;;;1.53;;
15110;SDS011;7656;51.954;7.998;2022-09-09T05:31:48;2.23;;;1.00;;
15110;SDS011;7656;51.954;7.998;2022-09-09T05:36:14;1.20;;;1.13;;
15110;SDS011;7656;51.954;7.998;2022-09-09T05:40:39;1.57;;;1.20;;
15110;SDS011;7656;51.954;7.998;2022-09-09T05:45:11;1.07;;;1.00;;
15110;SDS011;7656;51.954;7.998;2022-09-09T05:49:33;2.13;;;1.40;;
15110;SDS011;7656;51.954;7.998;2022-09-09T05:53:54;1.80;;;1.50;;
15110;SDS011;7656;51.954;7.998;2022-09-09T05:58:24;2.73;;;1.40;;
15110;SDS011;7656;51.954;7.998;2022-09-09T06:02:50;1.63;;;1.07;;
15110;SDS011;7656;51.954;7.998;2022-09-09T06:07:14;1.63;;;1.00;;
15110;SDS011;7656;51.954;7.998;2022-09-09T06:11:36;1.73;;;1.23;;
15110;SDS011;7656;51.954;7.998;2022-09-09T06:15:59;2.37;;;1.40;;
15110;SDS011;7656;51.954;7.998;2022-09-09T06:20:21;3.27;;;1.43;;
15110;SDS011;7656;51.954;7.998;2022-09-09T06:24:43;2.57;;;1.37;;
15110;SDS011;7656;51.954;7.998;2022-09-09T06:29:05;3.20;;;1.20;;
15110;SDS011;7656;51.954;7.998;2022-09-09T06:33:26;2.63;;;1.40;;
15110;SDS011;7656;51.954;7.998;2022-09-09T06:37:53;4.70;;;1.30;;
15110;SDS011;7656;51.954;7.998;2022-09-09T06:42:14;5.33;;;1.67;;
15110;SDS011;7656;51.954;7.998;2022-09-09T06:46:49;3.27;;;1.50;;
15110;SDS011;7656;51.954;7.998;2022-09-09T06:51:12;3.83;;;1.53;;
15110;SDS011;7656;51.954;7.998;2022-09-09T06:55:41;1.87;;;1.40;;
15110;SDS011;7656;51.954;7.998;2022-09-09T07:00:06;2.90;;;1.30;;
15110;SDS011;7656;51.954;7.998;2022-09-09T07:04:28;3.50;;;1.70;;
15110;SDS011;7656;51.954;7.998;2022-09-09T07:08:57;6.37;;;3.07;;
15110;SDS011;7656;51.954;7.998;2022-09-09T07:13:24;6.70;;;2.40;;
15110;SDS011;7656;51.954;7.998;2022-09-09T07:17:48;3.40;;;1.30;;
15110;SDS011;7656;51.954;7.998;2022-09-09T07:22:10;5.60;;;1.50;;
15110;SDS011;7656;51.954;7.998;2022-09-09T07:26:32;3.50;;;1.30;;
15110;SDS011;7656;51.954;7.998;2022-09-09T07:30:56;3.80;;;1.20;;
15110;SDS011;7656;51.954;7.998;2022-09-09T07:35:24;2.90;;;1.20;;
15110;SDS011;7656;51.954;7.998;2022-09-09T07:39:45;1.20;;;1.10;;
15110;SDS011;7656;51.954;7.998;2022-09-09T07:44:17;2.93;;;1.70;;
15110;SDS011;7656;51.954;7.998;2022-09-09T07:49:20;4.40;;;1.33;;
15110;SDS011;7656;51.954;7.998;2022-09-09T07:53:42;2.27;;;1.37;;
15110;SDS011;7656;51.954;7.998;2022-09-09T07:58:05;4.63;;;1.40;;
15110;SDS011;7656;51.954;7.998;2022-09-09T08:02:26;3.60;;;1.30;;
15110;SDS011;7656;51.954;7.998;2022-09-09T08:06:51;3.90;;;1.60;;
15110;SDS011;7656;51.954;7.998;2022-09-09T08:11:17;3.17;;;1.40;;
15110;SDS011;7656;51.954;7.998;2022-09-09T08:15:39;1.53;;;1.30;;
15110;SDS011;7656;51.954;7.998;2022-09-09T08:20:02;6.07;;;1.47;;
15110;SDS011;7656;51.954;7.998;2022-09-09T08:24:27;6.32;;;2.50;;
15110;SDS011;7656;51.954;7.998;2022-09-09T08:28:49;2.03;;;1.50;;
15110;SDS011;7656;51.954;7.998;2022-09-09T08:33:13;5.00;;;1.50;;
15110;SDS011;7656;51.954;7.998;2022-09-09T08:37:34;3.63;;;1.60;;
15110;SDS011;7656;51.954;7.998;2022-09-09T08:46:26;2.83;;;1.40;;
15110;SDS011;7656;51.954;7.998;2022-09-09T08:51:00;4.27;;;1.67;;
15110;SDS011;7656;51.954;7.998;2022-09-09T08:55:46;3.40;;;1.13;;
15110;SDS011;7656;51.954;7.998;2022-09-09T09:00:12;1.13;;;1.03;;
15110;SDS011;7656;51.954;7.998;2022-09-09T09:04:50;3.40;;;1.17;;
15110;SDS011;7656;51.954;7.998;2022-09-09T09:14:23;2.08;;;1.63;;
15110;SDS011;7656;51.954;7.998;2022-09-09T09:18:48;2.75;;;1.83;;
15110;SDS011;7656;51.954;7.998;2022-09-09T09:23:15;2.55;;;1.40;;
15110;SDS011;7656;51.954;7.998;2022-09-09T09:32:21;6.30;;;1.58;;
15110;SDS011;7656;51.954;7.998;2022-09-09T09:36:46;3.72;;;1.77;;
15110;SDS011;7656;51.954;7.998;2022-09-09T09:41:30;2.15;;;1.20;;
15110;SDS011;7656;51.954;7.998;2022-09-09T09:45:59;2.40;;;1.30;;
15110;SDS011;7656;51.954;7.998;2022-09-09T09:50:21;1.63;;;1.23;;
15110;SDS011;7656;51.954;7.998;2022-09-09T09:54:46;2.10;;;1.27;;
15110;SDS011;7656;51.954;7.998;2022-09-09T09:59:19;3.03;;;1.38;;
15110;SDS011;7656;51.954;7.998;2022-09-09T10:03:54;2.75;;;1.48;;
15110;SDS011;7656;51.954;7.998;2022-09-09T10:08:44;1.50;;;1.20;;
15110;SDS011;7656;51.954;7.998;2022-09-09T10:13:15;2.47;;;1.33;;
15110;SDS011;7656;51.954;7.998;2022-09-09T10:18:21;1.40;;;1.13;;
15110;SDS011;7656;51.954;7.998;2022-09-09T10:22:49;4.20;;;1.40;;
15110;SDS011;7656;51.954;7.998;2022-09-09T10:36:52;5.03;;;1.70;;
15110;SDS011;7656;51.954;7.998;2022-09-09T10:55:48;2.92;;;1.65;;
15110;SDS011;7656;51.954;7.998;2022-09-09T11:00:22;3.17;;;1.60;;
15110;SDS011;7656;51.954;7.998;2022-09-09T11:04:50;2.75;;;1.45;;
15110;SDS011;7656;51.954;7.998;2022-09-09T11:09:24;1.73;;;1.40;;
15110;SDS011;7656;51.954;7.998;2022-09-09T11:18:17;2.38;;;1.55;;
15110;SDS011;7656;51.954;7.998;2022-09-09T11:22:45;1.83;;;1.50;;
15110;SDS011;7656;51.954;7.998;2022-09-09T11:41:36;2.42;;;1.45;;
15110;SDS011;7656;51.954;7.998;2022-09-09T11:45:59;1.35;;;1.05;;
15110;SDS011;7656;51.954;7.998;2022-09-09T11:54:46;2.40;;;1.70;;
15110;SDS011;7656;51.954;7.998;2022-09-09T12:09:07;1.17;;;1.08;;
15110;SDS011;7656;51.954;7.998;2022-09-09T12:13:57;2.85;;;2.05;;
15110;SDS011;7656;51.954;7.998;2022-09-09T12:18:25;2.85;;;1.25;;
15110;SDS011;7656;51.954;7.998;2022-09-09T12:23:13;1.20;;;1.08;;
15110;SDS011;7656;51.954;7.998;2022-09-09T12:28:17;1.80;;;1.30;;
15110;SDS011;7656;51.954;7.998;2022-09-09T12:32:41;2.20;;;1.52;;
15110;SDS011;7656;51.954;7.998;2022-09-09T12:37:06;2.28;;;1.58;;
15110;SDS011;7656;51.954;7.998;2022-09-09T12:41:53;3.50;;;1.60;;
15110;SDS011;7656;51.954;7.998;2022-09-09T12:46:30;1.98;;;1.27;;
15110;SDS011;7656;51.954;7.998;2022-09-09T12:50:57;2.03;;;1.33;;
15110;SDS011;7656;51.954;7.998;2022-09-09T12:55:19;1.92;;;1.30;;
15110;SDS011;7656;51.954;7.998;2022-09-09T12:59:45;1.65;;;1.50;;
15110;SDS011;7656;51.954;7.998;2022-09-09T13:04:19;2.10;;;1.42;;
15110;SDS011;7656;51.954;7.998;2022-09-09T13:08:42;2.13;;;1.30;;
15110;SDS011;7656;51.954;7.998;2022-09-09T13:13:04;1.13;;;1.10;;
15110;SDS011;7656;51.954;7.998;2022-09-09T13:17:34;2.42;;;1.50;;
15110;SDS011;7656;51.954;7.998;2022-09-09T13:21:56;1.65;;;1.30;;
15110;SDS011;7656;51.954;7.998;2022-09-09T13:26:24;1.10;;;1.10;;
15110;SDS011;7656;51.954;7.998;2022-09-09T13:30:55;1.05;;;1.02;;
15110;SDS011;7656;51.954;7.998;2022-09-09T13:35:23;2.90;;;1.48;;
15110;SDS011;7656;51.954;7.998;2022-09-09T13:39:50;1.58;;;1.20;;
15110;SDS011;7656;51.954;7.998;2022-09-09T13:44:18;2.20;;;1.00;;
15110;SDS011;7656;51.954;7.998;2022-09-09T13:48:56;3.88;;;1.20;;
15110;SDS011;7656;51.954;7.998;2022-09-09T13:53:19;1.27;;;0.90;;
15110;SDS011;7656;51.954;7.998;2022-09-09T13:57:49;2.45;;;0.90;;
15110;SDS011;7656;51.954;7.998;2022-09-09T14:02:12;0.80;;;0.80;;
15110;SDS011;7656;51.954;7.998;2022-09-09T14:06:34;1.38;;;0.98;;
15110;SDS011;7656;51.954;7.998;2022-09-09T14:10:59;1.45;;;0.95;;
15110;SDS011;7656;51.954;7.998;2022-09-09T14:15:20;4.00;;;1.15;;
15110;SDS011;7656;51.954;7.998;2022-09-09T14:19:42;3.00;;;0.77;;
15110;SDS011;7656;51.954;7.998;2022-09-09T14:24:03;1.27;;;0.93;;
15110;SDS011;7656;51.954;7.998;2022-09-09T14:28:25;0.93;;;0.70;;
15110;SDS011;7656;51.954;7.998;2022-09-09T14:32:46;1.42;;;0.65;;
15110;SDS011;7656;51.954;7.998;2022-09-09T14:37:07;1.90;;;1.10;;
15110;SDS011;7656;51.954;7.998;2022-09-09T14:41:28;1.23;;;0.70;;
15110;SDS011;7656;51.954;7.998;2022-09-09T14:45:49;0.98;;;0.85;;
15110;SDS011;7656;51.954;7.998;2022-09-09T14:50:11;1.15;;;1.00;;
15110;SDS011;7656;51.954;7.998;2022-09-09T14:54:33;2.35;;;0.90;;
15110;SDS011;7656;51.954;7.998;2022-09-09T14:58:55;3.20;;;0.93;;
15110;SDS011;7656;51.954;7.998;2022-09-09T15:03:18;1.00;;;0.82;;
15110;SDS011;7656;51.954;7.998;2022-09-09T15:07:39;0.93;;;0.93;;
15110;SDS011;7656;51.954;7.998;2022-09-09T15:12:00;1.27;;;1.05;;
15110;SDS011;7656;51.954;7.998;2022-09-09T15:16:24;2.58;;;1.08;;
15110;SDS011;7656;51.954;7.998;2022-09-09T15:20:47;1.25;;;0.70;;
15110;SDS011;7656;51.954;7.998;2022-09-09T15:25:09;0.93;;;0.70;;
15110;SDS011;7656;51.954;7.998;2022-09-09T15:29:30;0.57;;;0.57;;
15110;SDS011;7656;51.954;7.998;2022-09-09T15:33:55;0.57;;;0.57;;
15110;SDS011;7656;51.954;7.998;2022-09-09T15:38:21;0.50;;;0.50;;
15110;SDS011;7656;51.954;7.998;2022-09-09T15:42:42;1.55;;;0.80;;
15110;SDS011;7656;51.954;7.998;2022-09-09T15:47:03;1.60;;;0.75;;
15110;SDS011;7656;51.954;7.998;2022-09-09T15:51:25;1.15;;;0.60;;
15110;SDS011;7656;51.954;7.998;2022-09-09T15:55:46;1.52;;;0.80;;
15110;SDS011;7656;51.954;7.998;2022-09-09T16:00:07;2.35;;;1.10;;
15110;SDS011;7656;51.954;7.998;2022-09-09T16:04:29;2.00;;;0.70;;
15110;SDS011;7656;51.954;7.998;2022-09-09T16:08:51;0.80;;;0.80;;
15110;SDS011;7656;51.954;7.998;2022-09-09T16:13:13;0.80;;;0.80;;
15110;SDS011;7656;51.954;7.998;2022-09-09T16:17:34;1.02;;;0.90;;
15110;SDS011;7656;51.954;7.998;2022-09-09T16:21:58;1.08;;;0.90;;
15110;SDS011;7656;51.954;7.998;2022-09-09T16:26:19;1.63;;;1.10;;
15110;SDS011;7656;51.954;7.998;2022-09-09T16:30:40;3.53;;;1.00;;
15110;SDS011;7656;51.954;7.998;2022-09-09T16:35:01;1.20;;;1.05;;
15110;SDS011;7656;51.954;7.998;2022-09-09T16:39:23;1.02;;;0.90;;
15110;SDS011;7656;51.954;7.998;2022-09-09T16:43:44;1.48;;;1.20;;
15110;SDS011;7656;51.954;7.998;2022-09-09T16:48:06;3.55;;;1.48;;
15110;SDS011;7656;51.954;7.998;2022-09-09T16:52:27;2.77;;;1.33;;
15110;SDS011;7656;51.954;7.998;2022-09-09T16:56:48;2.53;;;1.10;;
15110;SDS011;7656;51.954;7.998;2022-09-09T17:01:09;0.63;;;0.63;;
15110;SDS011;7656;51.954;7.998;2022-09-09T17:05:38;0.50;;;0.50;;
15110;SDS011;7656;51.954;7.998;2022-09-09T17:10:01;0.60;;;0.60;;
15110;SDS011;7656;51.954;7.998;2022-09-09T17:14:23;1.80;;;0.63;;
15110;SDS011;7656;51.954;7.998;2022-09-09T17:18:45;0.40;;;0.40;;
15110;SDS011;7656;51.954;7.998;2022-09-09T17:23:07;1.17;;;0.40;;
15110;SDS011;7656;51.954;7.998;2022-09-09T17:27:29;0.93;;;0.40;;
15110;SDS011;7656;51.954;7.998;2022-09-09T17:31:53;0.50;;;0.50;;
15110;SDS011;7656;51.954;7.998;2022-09-09T17:36:16;1.23;;;0.50;;
15110;SDS011;7656;51.954;7.998;2022-09-09T17:40:42;0.30;;;0.30;;
15110;SDS011;7656;51.954;7.998;2022-09-09T17:45:03;0.73;;;0.50;;
15110;SDS011;7656;51.954;7.998;2022-09-09T17:49:25;1.77;;;0.60;;
15110;SDS011;7656;51.954;7.998;2022-09-09T17:53:47;0.70;;;0.43;;
15110;SDS011;7656;51.954;7.998;2022-09-09T17:58:10;0.40;;;0.40;;
15110;SDS011;7656;51.954;7.998;2022-09-09T18:02:31;0.93;;;0.50;;
15110;SDS011;7656;51.954;7.998;2022-09-09T18:06:52;0.60;;;0.50;;
15110;SDS011;7656;51.954;7.998;2022-09-09T18:11:14;0.70;;;0.60;;
15110;SDS011;7656;51.954;7.998;2022-09-09T18:15:36;0.70;;;0.70;;
15110;SDS011;7656;51.954;7.998;2022-09-09T18:19:58;0.50;;;0.50;;
15110;SDS011;7656;51.954;7.998;2022-09-09T18:24:20;0.50;;;0.50;;
15110;SDS011;7656;51.954;7.998;2022-09-09T18:28:43;0.60;;;0.60;;
15110;SDS011;7656;51.954;7.998;2022-09-09T18:33:12;1.43;;;0.50;;
15110;SDS011;7656;51.954;7.998;2022-09-09T18:37:34;0.50;;;0.50;;
15110;SDS011;7656;51.954;7.998;2022-09-09T18:41:57;0.53;;;0.50;;
15110;SDS011;7656;51.954;7.998;2022-09-09T18:46:21;0.70;;;0.70;;
15110;SDS011;7656;51.954;7.998;2022-09-09T18:50:42;0.80;;;0.80;;
15110;SDS011;7656;51.954;7.998;2022-09-09T18:55:04;0.77;;;0.77;;
15110;SDS011;7656;51.954;7.998;2022-09-09T18:59:26;0.73;;;0.70;;
15110;SDS011;7656;51.954;7.998;2022-09-09T19:03:48;0.93;;;0.70;;
15110;SDS011;7656;51.954;7.998;2022-09-09T19:08:10;0.83;;;0.77;;
15110;SDS011;7656;51.954;7.998;2022-09-09T19:12:31;0.87;;;0.87;;
15110;SDS011;7656;51.954;7.998;2022-09-09T19:16:52;0.70;;;0.70;;
15110;SDS011;7656;51.954;7.998;2022-09-09T19:21:16;2.83;;;1.20;;
15110;SDS011;7656;51.954;7.998;2022-09-09T19:25:38;0.90;;;0.90;;
15110;SDS011;7656;51.954;7.998;2022-09-09T19:30:00;1.40;;;1.23;;
15110;SDS011;7656;51.954;7.998;2022-09-09T19:34:21;1.90;;;0.93;;
15110;SDS011;7656;51.954;7.998;2022-09-09T19:38:46;1.20;;;0.90;;
15110;SDS011;7656;51.954;7.998;2022-09-09T19:43:08;2.23;;;1.00;;
15110;SDS011;7656;51.954;7.998;2022-09-09T19:47:29;1.87;;;1.47;;
15110;SDS011;7656;51.954;7.998;2022-09-09T19:51:50;2.60;;;1.47;;
15110;SDS011;7656;51.954;7.998;2022-09-09T19:56:11;4.53;;;3.03;;
15110;SDS011;7656;51.954;7.998;2022-09-09T20:00:32;11.00;;;2.53;;
15110;SDS011;7656;51.954;7.998;2022-09-09T20:04:54;1.10;;;1.00;;
15110;SDS011;7656;51.954;7.998;2022-09-09T20:09:16;3.53;;;1.30;;
15110;SDS011;7656;51.954;7.998;2022-09-09T20:13:39;1.13;;;0.97;;
15110;SDS011;7656;51.954;7.998;2022-09-09T20:18:01;1.50;;;1.00;;
15110;SDS011;7656;51.954;7.998;2022-09-09T20:22:24;1.37;;;1.00;;
15110;SDS011;7656;51.954;7.998;2022-09-09T20:26:45;1.00;;;0.90;;
15110;SDS011;7656;51.954;7.998;2022-09-09T20:35:34;1.13;;;1.00;;
15110;SDS011;7656;51.954;7.998;2022-09-09T20:39:56;0.77;;;0.77;;
15110;SDS011;7656;51.954;7.998;2022-09-09T20:44:18;2.53;;;1.00;;
15110;SDS011;7656;51.954;7.998;2022-09-09T20:48:44;1.90;;;1.00;;
15110;SDS011;7656;51.954;7.998;2022-09-09T20:53:06;2.63;;;1.10;;
15110;SDS011;7656;51.954;7.998;2022-09-09T20:57:27;1.23;;;1.00;;
15110;SDS011;7656;51.954;7.998;2022-09-09T21:01:48;1.43;;;1.03;;
15110;SDS011;7656;51.954;7.998;2022-09-09T21:06:10;1.93;;;1.13;;
15110;SDS011;7656;51.954;7.998;2022-09-09T21:10:33;1.70;;;1.10;;
15110;SDS011;7656;51.954;7.998;2022-09-09T21:14:54;1.50;;;1.20;;
15110;SDS011;7656;51.954;7.998;2022-09-09T21:19:16;1.73;;;1.40;;
15110;SDS011;7656;51.954;7.998;2022-09-09T21:23:37;1.77;;;0.90;;
15110;SDS011;7656;51.954;7.998;2022-09-09T21:27:58;1.03;;;1.00;;
15110;SDS011;7656;51.954;7.998;2022-09-09T21:32:20;1.27;;;1.20;;
15110;SDS011;7656;51.954;7.998;2022-09-09T21:36:41;3.43;;;2.07;;
15110;SDS011;7656;51.954;7.998;2022-09-09T21:41:03;4.43;;;2.60;;
15110;SDS011;7656;51.954;7.998;2022-09-09T21:45:26;1.63;;;1.07;;
15110;SDS011;7656;51.954;7.998;2022-09-09T21:49:47;1.80;;;1.00;;
15110;SDS011;7656;51.954;7.998;2022-09-09T21:54:08;1.33;;;1.20;;
15110;SDS011;7656;51.954;7.998;2022-09-09T21:58:29;2.30;;;1.10;;
15110;SDS011;7656;51.954;7.998;2022-09-09T22:02:51;3.60;;;1.30;;
15110;SDS011;7656;51.954;7.998;2022-09-09T22:07:12;1.47;;;1.20;;
15110;SDS011;7656;51.954;7.998;2022-09-09T22:11:36;1.27;;;1.17;;
15110;SDS011;7656;51.954;7.998;2022-09-09T22:15:57;1.67;;;1.30;;
15110;SDS011;7656;51.954;7.998;2022-09-09T22:20:22;1.27;;;1.17;;
15110;SDS011;7656;51.954;7.998;2022-09-09T22:24:44;1.60;;;1.30;;
15110;SDS011;7656;51.954;7.998;2022-09-09T22:29:05;1.40;;;1.30;;
15110;SDS011;7656;51.954;7.998;2022-09-09T22:33:27;1.87;;;1.23;;
15110;SDS011;7656;51.954;7.998;2022-09-09T22:37:48;1.40;;;1.30;;
15110;SDS011;7656;51.954;7.998;2022-09-09T22:42:09;5.67;;;1.80;;
15110;SDS011;7656;51.954;7.998;2022-09-09T22:46:31;2.30;;;1.37;;
15110;SDS011;7656;51.954;7.998;2022-09-09T22:50:53;1.43;;;1.33;;
15110;SDS011;7656;51.954;7.998;2022-09-09T22:55:22;2.33;;;1.30;;
15110;SDS011;7656;51.954;7.998;2022-09-09T22:59:45;1.80;;;1.70;;
15110;SDS011;7656;51.954;7.998;2022-09-09T23:04:06;1.43;;;1.30;;
15110;SDS011;7656;51.954;7.998;2022-09-09T23:08:30;1.73;;;1.40;;
15110;SDS011;7656;51.954;7.998;2022-09-09T23:12:54;2.97;;;1.80;;
15110;SDS011;7656;51.954;7.998;2022-09-09T23:17:17;2.83;;;2.00;;
15110;SDS011;7656;51.954;7.998;2022-09-09T23:21:40;1.93;;;1.60;;
15110;SDS011;7656;51.954;7.998;2022-09-09T23:26:04;4.87;;;1.57;;
15110;SDS011;7656;51.954;7.998;2022-09-09T23:30:26;1.77;;;1.67;;
15110;SDS011;7656;51.954;7.998;2022-09-09T23:34:48;1.87;;;1.47;;
15110;SDS011;7656;51.954;7.998;2022-09-09T23:39:10;1.63;;;1.53;;
15110;SDS011;7656;51.954;7.998;2022-09-09T23:43:32;1.80;;;1.60;;
15110;SDS011;7656;51.954;7.998;2022-09-09T23:48:03;2.40;;;1.80;;
15110;SDS011;7656;51.954;7.998;2022-09-09T23:52:24;1.77;;;1.47;;
15110;SDS011;7656;51.954;7.998;2022-09-09T23:56:46;2.00;;;1.40;;
